createdAt,value
2022-09-24T00:01:18.217Z,13.75
2022-09-24T00:03:51.743Z,13.74
2022-09-24T00:06:21.664Z,13.74
2022-09-24T00:08:50.834Z,13.74
2022-09-24T00:11:21.653Z,13.73
2022-09-24T00:13:49.739Z,13.71
2022-09-24T00:16:17.858Z,13.71
2022-09-24T00:18:45.016Z,13.69
2022-09-24T00:21:20.302Z,13.69
2022-09-24T00:23:55.429Z,13.69
2022-09-24T00:26:41.287Z,13.68
2022-09-24T00:29:14.020Z,13.67
2022-09-24T00:31:41.046Z,13.67
2022-09-24T00:34:07.803Z,13.66
2022-09-24T00:36:34.324Z,13.66
2022-09-24T00:39:01.117Z,13.65
2022-09-24T00:41:30.609Z,13.66
2022-09-24T00:43:57.765Z,13.64
2022-09-24T00:46:41.201Z,13.62
2022-09-24T00:49:14.944Z,13.60
2022-09-24T00:51:43.920Z,13.60
2022-09-24T00:54:14.853Z,13.60
2022-09-24T00:56:43.685Z,13.60
2022-09-24T00:59:16.906Z,13.58
2022-09-24T01:01:45.331Z,13.57
2022-09-24T01:04:13.686Z,13.57
2022-09-24T01:06:40.388Z,13.56
2022-09-24T01:09:07.304Z,13.55
2022-09-24T01:11:54.895Z,13.54
2022-09-24T01:14:36.587Z,13.51
2022-09-24T01:17:08.529Z,13.49
2022-09-24T01:20:18.746Z,13.49
2022-09-24T01:22:57.536Z,13.49
2022-09-24T01:25:45.884Z,13.48
2022-09-24T01:28:13.094Z,13.46
2022-09-24T01:30:42.496Z,13.45
2022-09-24T01:33:16.170Z,13.46
2022-09-24T01:35:52.171Z,13.46
2022-09-24T01:38:23.450Z,13.45
2022-09-24T01:40:51.737Z,13.44
2022-09-24T01:43:25.175Z,13.44
2022-09-24T01:45:52.420Z,13.41
2022-09-24T01:48:21.962Z,13.41
2022-09-24T01:51:05.497Z,13.44
2022-09-24T01:53:57.688Z,13.43
2022-09-24T01:56:30.551Z,13.41
2022-09-24T01:59:22.567Z,13.39
2022-09-24T02:02:07.346Z,13.38
2022-09-24T02:04:40.189Z,13.37
2022-09-24T02:07:19.527Z,13.37
2022-09-24T02:09:46.086Z,13.36
2022-09-24T02:12:22.881Z,13.35
2022-09-24T02:15:18.644Z,13.34
2022-09-24T02:17:48.588Z,13.34
2022-09-24T02:20:19.937Z,13.33
2022-09-24T02:22:49.437Z,13.31
2022-09-24T02:25:25.102Z,13.31
2022-09-24T02:27:51.765Z,13.30
2022-09-24T02:30:19.014Z,13.28
2022-09-24T02:32:46.205Z,13.28
2022-09-24T02:35:12.998Z,13.27
2022-09-24T02:37:44.756Z,13.26
2022-09-24T02:40:15.298Z,13.27
2022-09-24T02:42:43.542Z,13.25
2022-09-24T02:45:14.081Z,13.23
2022-09-24T02:47:42.177Z,13.22
2022-09-24T02:50:09.816Z,13.21
2022-09-24T02:52:36.480Z,13.21
2022-09-24T02:55:05.550Z,13.20
2022-09-24T02:57:32.309Z,13.18
2022-09-24T02:59:58.832Z,13.17
2022-09-24T03:02:26.776Z,13.13
2022-09-24T03:04:53.427Z,13.13
2022-09-24T03:07:21.808Z,13.10
2022-09-24T03:09:48.538Z,13.09
2022-09-24T03:12:17.944Z,13.07
2022-09-24T03:14:44.543Z,13.05
2022-09-24T03:17:11.286Z,13.04
2022-09-24T03:19:40.743Z,13.03
2022-09-24T03:22:07.303Z,13.02
2022-09-24T03:24:34.297Z,13.01
2022-09-24T03:27:02.933Z,13.00
2022-09-24T03:29:52.534Z,12.98
2022-09-24T03:32:19.066Z,12.96
2022-09-24T03:34:47.764Z,12.95
2022-09-24T03:37:14.358Z,12.94
2022-09-24T03:39:43.078Z,12.93
2022-09-24T03:42:09.950Z,12.95
2022-09-24T03:44:36.460Z,12.95
2022-09-24T03:47:02.953Z,12.94
2022-09-24T03:49:30.187Z,12.94
2022-09-24T03:51:58.300Z,12.95
2022-09-24T03:54:25.092Z,12.95
2022-09-24T03:56:51.951Z,12.95
2022-09-24T03:59:19.618Z,12.93
2022-09-24T04:01:46.200Z,12.95
2022-09-24T04:04:16.390Z,12.95
2022-09-24T04:06:42.979Z,12.95
2022-09-24T04:09:10.553Z,12.95
2022-09-24T04:11:43.492Z,12.95
2022-09-24T04:14:10.330Z,12.94
2022-09-24T04:16:36.972Z,12.94
2022-09-24T04:19:03.617Z,12.94
2022-09-24T04:21:30.431Z,12.94
2022-09-24T04:23:56.887Z,12.94
2022-09-24T04:26:23.408Z,12.91
2022-09-24T04:28:50.502Z,12.93
2022-09-24T04:31:17.589Z,12.93
2022-09-24T04:33:44.274Z,12.94
2022-09-24T04:36:10.986Z,12.94
2022-09-24T04:38:37.509Z,12.95
2022-09-24T04:41:08.491Z,12.94
2022-09-24T04:43:37.127Z,12.93
2022-09-24T04:46:03.939Z,12.91
2022-09-24T04:48:33.979Z,12.93
2022-09-24T04:51:02.177Z,12.93
2022-09-24T04:53:28.765Z,12.94
2022-09-24T04:55:55.239Z,12.94
2022-09-24T04:58:22.121Z,12.96
2022-09-24T05:00:52.864Z,12.96
2022-09-24T05:03:22.957Z,12.95
2022-09-24T05:05:52.812Z,12.96
2022-09-24T05:08:19.407Z,12.94
2022-09-24T05:10:45.928Z,12.94
2022-09-24T05:13:12.427Z,12.95
2022-09-24T05:15:42.983Z,12.96
2022-09-24T05:18:09.892Z,12.96
2022-09-24T05:20:37.803Z,12.96
2022-09-24T05:23:05.671Z,12.98
2022-09-24T05:25:32.183Z,12.97
2022-09-24T05:27:58.666Z,12.98
2022-09-24T05:30:26.469Z,12.99
2022-09-24T05:32:53.243Z,12.99
2022-09-24T05:35:24.610Z,12.99
2022-09-24T05:37:54.112Z,13.00
2022-09-24T05:40:39.736Z,13.00
2022-09-24T05:43:06.379Z,13.01
2022-09-24T05:45:34.219Z,13.01
2022-09-24T05:48:00.956Z,13.01
2022-09-24T05:50:28.318Z,13.00
2022-09-24T05:52:57.959Z,13.02
2022-09-24T05:55:30.034Z,13.01
2022-09-24T05:58:07.242Z,13.04
2022-09-24T06:00:35.646Z,13.04
2022-09-24T06:03:10.796Z,13.07
2022-09-24T06:05:37.471Z,13.09
2022-09-24T06:08:05.007Z,13.11
2022-09-24T06:10:32.022Z,13.14
2022-09-24T06:12:59.094Z,13.16
2022-09-24T06:15:27.235Z,13.19
2022-09-24T06:17:54.950Z,13.22
2022-09-24T06:20:22.796Z,13.24
2022-09-24T06:22:52.026Z,13.25
2022-09-24T06:25:18.723Z,13.26
2022-09-24T06:27:45.235Z,13.30
2022-09-24T06:30:11.958Z,13.31
2022-09-24T06:32:38.590Z,13.33
2022-09-24T06:35:05.921Z,13.35
2022-09-24T06:37:32.369Z,13.37
2022-09-24T06:39:59.738Z,13.39
2022-09-24T06:42:27.879Z,13.39
2022-09-24T06:44:54.619Z,13.43
2022-09-24T06:47:23.609Z,13.43
2022-09-24T06:49:50.756Z,13.47
2022-09-24T06:52:17.440Z,13.48
2022-09-24T06:54:43.965Z,13.53
2022-09-24T06:57:11.233Z,13.53
2022-09-24T06:59:37.825Z,13.54
2022-09-24T07:02:04.407Z,13.55
2022-09-24T07:04:30.941Z,13.57
2022-09-24T07:07:15.935Z,13.59
2022-09-24T07:09:42.425Z,13.60
2022-09-24T07:12:08.982Z,13.63
2022-09-24T07:14:35.509Z,13.66
2022-09-24T07:17:02.315Z,13.69
2022-09-24T07:19:28.837Z,13.75
2022-09-24T07:21:56.358Z,13.81
2022-09-24T07:24:22.847Z,13.85
2022-09-24T07:26:50.064Z,13.90
2022-09-24T07:29:16.707Z,13.92
2022-09-24T07:31:43.383Z,13.96
2022-09-24T07:34:10.087Z,13.97
2022-09-24T07:36:36.749Z,14.00
2022-09-24T07:39:03.543Z,14.02
2022-09-24T07:41:29.991Z,14.04
2022-09-24T07:43:56.629Z,14.04
2022-09-24T07:46:24.425Z,13.99
2022-09-24T07:48:56.059Z,14.03
2022-09-24T07:51:28.571Z,14.04
2022-09-24T07:53:56.284Z,14.02
2022-09-24T07:56:23.742Z,14.02
2022-09-24T07:58:52.017Z,14.03
2022-09-24T08:01:21.742Z,14.05
2022-09-24T08:03:48.496Z,14.08
2022-09-24T08:06:17.833Z,14.12
2022-09-24T08:08:44.553Z,14.13
2022-09-24T08:11:21.556Z,14.14
2022-09-24T08:13:48.276Z,14.08
2022-09-24T08:16:17.284Z,14.11
2022-09-24T08:18:44.695Z,14.12
2022-09-24T08:21:13.288Z,14.14
2022-09-24T08:23:42.621Z,14.16
2022-09-24T08:26:10.661Z,14.18
2022-09-24T08:28:37.929Z,14.19
2022-09-24T08:31:11.219Z,14.20
2022-09-24T08:33:38.891Z,14.19
2022-09-24T08:36:09.194Z,14.18
2022-09-24T08:38:36.045Z,14.19
2022-09-24T08:41:12.087Z,14.18
2022-09-24T08:44:00.407Z,14.16
2022-09-24T08:46:55.112Z,14.15
2022-09-24T08:49:26.150Z,14.16
2022-09-24T08:52:07.956Z,14.17
2022-09-24T08:54:37.476Z,14.14
2022-09-24T08:57:12.342Z,14.16
2022-09-24T08:59:43.214Z,14.16
2022-09-24T09:02:28.389Z,14.17
2022-09-24T09:04:54.877Z,14.16
2022-09-24T09:07:53.066Z,14.14
2022-09-24T09:10:28.944Z,14.15
2022-09-24T09:13:01.965Z,14.13
2022-09-24T09:15:36.632Z,14.11
2022-09-24T09:18:15.108Z,14.12
2022-09-24T09:20:46.792Z,14.14
2022-09-24T09:23:40.807Z,14.17
2022-09-24T09:26:15.595Z,14.18
2022-09-24T09:28:50.476Z,14.22
2022-09-24T09:31:39.151Z,14.23
2022-09-24T09:34:42.384Z,14.25
2022-09-24T09:37:26.222Z,14.25
2022-09-24T09:40:10.060Z,14.29
2022-09-24T09:42:42.320Z,14.30
2022-09-24T09:45:32.611Z,14.31
2022-09-24T09:48:04.850Z,14.32
2022-09-24T09:50:37.270Z,14.30
2022-09-24T09:53:17.668Z,14.31
2022-09-24T09:55:44.316Z,14.32
2022-09-24T09:58:22.341Z,14.35
2022-09-24T10:00:49.757Z,14.37
2022-09-24T10:03:24.335Z,14.19
2022-09-24T10:06:02.130Z,14.11
2022-09-24T10:08:29.849Z,14.17
2022-09-24T10:10:58.232Z,14.17
2022-09-24T10:13:25.738Z,14.03
2022-09-24T10:15:57.644Z,14.00
2022-09-24T10:18:34.370Z,13.95
2022-09-24T10:21:04.175Z,14.02
2022-09-24T10:23:40.099Z,14.00
2022-09-24T10:26:07.708Z,14.02
2022-09-24T10:28:56.055Z,14.05
2022-09-24T10:31:25.349Z,13.96
2022-09-24T10:33:58.520Z,13.95
2022-09-24T10:36:30.457Z,13.96
2022-09-24T10:39:15.787Z,13.95
2022-09-24T10:41:50.260Z,13.98
2022-09-24T10:44:18.723Z,13.92
2022-09-24T10:47:10.727Z,13.86
2022-09-24T10:49:48.164Z,13.87
2022-09-24T10:52:39.395Z,13.84
2022-09-24T10:55:12.996Z,13.85
2022-09-24T10:57:55.722Z,13.91
2022-09-24T11:00:24.532Z,13.89
2022-09-24T11:03:03.118Z,13.85
2022-09-24T11:05:52.760Z,13.90
2022-09-24T11:09:11.740Z,13.91
2022-09-24T11:12:07.943Z,14.00
2022-09-24T11:14:41.763Z,14.07
2022-09-24T11:17:23.413Z,14.09
2022-09-24T11:19:49.794Z,14.12
2022-09-24T11:22:24.740Z,14.07
2022-09-24T11:25:10.097Z,14.07
2022-09-24T11:28:02.248Z,14.15
2022-09-24T11:30:44.306Z,14.20
2022-09-24T11:33:29.711Z,14.17
2022-09-24T11:36:43.886Z,14.18
2022-09-24T11:39:43.698Z,14.22
2022-09-24T11:42:10.096Z,14.26
2022-09-24T11:44:43.034Z,14.26
2022-09-24T11:47:20.969Z,14.16
2022-09-24T11:50:09.447Z,13.92
2022-09-24T11:52:41.362Z,13.86
2022-09-24T11:55:32.559Z,13.81
2022-09-24T11:58:16.930Z,13.78
2022-09-24T12:01:13.164Z,13.72
2022-09-24T12:03:44.347Z,13.65
2022-09-24T12:06:22.089Z,13.64
2022-09-24T12:09:01.547Z,13.65
2022-09-24T12:11:41.272Z,13.63
2022-09-24T12:14:17.879Z,13.64
2022-09-24T12:16:48.271Z,13.61
2022-09-24T12:19:30.799Z,13.58
2022-09-24T12:21:58.551Z,13.58
2022-09-24T12:24:36.378Z,13.56
2022-09-24T12:27:12.133Z,13.62
2022-09-24T12:30:03.238Z,13.66
2022-09-24T12:32:54.658Z,13.69
2022-09-24T12:35:54.175Z,13.74
2022-09-24T12:38:29.089Z,13.74
2022-09-24T12:41:10.543Z,13.84
2022-09-24T12:43:45.928Z,13.82
2022-09-24T12:46:36.322Z,13.80
2022-09-24T12:49:02.844Z,13.73
2022-09-24T12:51:39.541Z,13.68
2022-09-24T12:54:48.055Z,13.65
2022-09-24T12:57:25.714Z,13.59
2022-09-24T13:00:01.572Z,13.54
2022-09-24T13:02:47.394Z,13.50
2022-09-24T13:05:28.193Z,13.52
2022-09-24T13:07:59.716Z,13.46
2022-09-24T13:10:31.860Z,13.47
2022-09-24T13:13:00.632Z,13.53
2022-09-24T13:15:39.456Z,13.57
2022-09-24T13:18:09.167Z,13.62
2022-09-24T13:20:38.064Z,13.63
2022-09-24T13:23:20.383Z,13.66
2022-09-24T13:26:12.881Z,13.78
2022-09-24T13:28:48.645Z,13.73
2022-09-24T13:31:21.322Z,13.73
2022-09-24T13:33:52.447Z,13.80
2022-09-24T13:36:22.745Z,13.78
2022-09-24T13:39:14.174Z,13.79
2022-09-24T13:41:40.674Z,13.75
2022-09-24T13:44:30.247Z,13.75
2022-09-24T13:47:15.341Z,13.70
2022-09-24T13:49:45.687Z,13.74
2022-09-24T13:52:24.845Z,13.76
2022-09-24T13:54:56.639Z,13.84
2022-09-24T13:57:30.520Z,13.87
2022-09-24T14:00:22.954Z,13.90
2022-09-24T14:02:52.587Z,13.95
2022-09-24T14:05:20.038Z,13.98
2022-09-24T14:08:13.566Z,14.01
2022-09-24T14:10:40.725Z,13.99
2022-09-24T14:13:22.931Z,13.97
2022-09-24T14:16:10.462Z,13.97
2022-09-24T14:18:37.226Z,13.96
2022-09-24T14:21:07.369Z,13.94
2022-09-24T14:23:40.774Z,13.96
2022-09-24T14:26:10.454Z,13.97
2022-09-24T14:28:37.134Z,13.98
2022-09-24T14:31:10.455Z,14.03
2022-09-24T14:33:39.350Z,14.06
2022-09-24T14:36:10.139Z,14.08
2022-09-24T14:38:53.359Z,14.14
2022-09-24T14:41:23.855Z,14.15
2022-09-24T14:43:56.604Z,14.19
2022-09-24T14:46:34.034Z,14.19
2022-09-24T14:49:29.733Z,14.18
2022-09-24T14:51:58.425Z,14.19
2022-09-24T14:54:38.015Z,14.21
2022-09-24T14:57:31.660Z,14.28
2022-09-24T14:59:58.153Z,14.29
2022-09-24T15:02:29.574Z,14.34
2022-09-24T15:05:05.630Z,14.33
2022-09-24T15:07:33.920Z,14.31
2022-09-24T15:10:02.694Z,14.32
2022-09-24T15:12:32.305Z,14.34
2022-09-24T15:15:03.554Z,14.33
2022-09-24T15:17:35.196Z,14.30
2022-09-24T15:20:04.257Z,14.24
2022-09-24T15:22:31.267Z,14.21
2022-09-24T15:25:01.861Z,14.18
2022-09-24T15:27:32.733Z,14.16
2022-09-24T15:30:01.401Z,14.12
2022-09-24T15:32:31.069Z,14.06
2022-09-24T15:34:57.536Z,14.02
2022-09-24T15:37:26.458Z,13.98
2022-09-24T15:39:56.215Z,13.97
2022-09-24T15:42:25.256Z,13.95
2022-09-24T15:44:53.594Z,13.98
2022-09-24T15:47:20.196Z,13.93
2022-09-24T15:49:47.319Z,13.93
2022-09-24T15:52:27.168Z,13.94
2022-09-24T15:54:56.080Z,13.93
2022-09-24T15:57:22.837Z,13.90
2022-09-24T15:59:50.077Z,13.89
2022-09-24T16:02:31.883Z,13.90
2022-09-24T16:05:03.344Z,13.91
2022-09-24T16:07:30.549Z,13.89
2022-09-24T16:09:57.082Z,13.89
2022-09-24T16:12:27.950Z,13.90
2022-09-24T16:14:58.876Z,13.90
2022-09-24T16:17:25.799Z,13.90
2022-09-24T16:19:52.293Z,13.87
2022-09-24T16:22:20.665Z,13.86
2022-09-24T16:24:47.511Z,13.85
2022-09-24T16:27:14.197Z,13.87
2022-09-24T16:29:40.602Z,13.86
2022-09-24T16:32:07.127Z,13.86
2022-09-24T16:34:34.457Z,13.83
2022-09-24T16:37:00.926Z,13.81
2022-09-24T16:39:27.350Z,13.84
2022-09-24T16:41:54.760Z,13.83
2022-09-24T16:44:21.289Z,13.80
2022-09-24T16:46:47.817Z,13.78
2022-09-24T16:49:14.474Z,13.78
2022-09-24T16:51:40.983Z,13.75
2022-09-24T16:54:32.856Z,13.73
2022-09-24T16:56:59.313Z,13.75
2022-09-24T16:59:27.989Z,13.76
2022-09-24T17:01:54.710Z,13.75
2022-09-24T17:04:22.550Z,13.72
2022-09-24T17:06:49.290Z,13.69
2022-09-24T17:09:34.355Z,13.69
2022-09-24T17:12:01.339Z,13.71
2022-09-24T17:14:27.778Z,13.69
2022-09-24T17:16:54.189Z,13.68
2022-09-24T17:19:20.647Z,13.66
2022-09-24T17:21:50.061Z,13.60
2022-09-24T17:24:21.442Z,13.55
2022-09-24T17:26:48.895Z,13.52
2022-09-24T17:29:15.371Z,13.46
2022-09-24T17:31:41.850Z,13.44
2022-09-24T17:34:12.284Z,13.41
2022-09-24T17:36:38.753Z,13.37
2022-09-24T17:39:06.422Z,13.34
2022-09-24T17:41:33.817Z,13.29
2022-09-24T17:44:01.078Z,13.26
2022-09-24T17:46:29.506Z,13.20
2022-09-24T17:49:01.297Z,13.15
2022-09-24T17:51:33.478Z,13.10
2022-09-24T17:54:06.500Z,13.04
2022-09-24T17:56:34.046Z,13.00
2022-09-24T17:59:00.600Z,12.93
2022-09-24T18:01:29.353Z,12.89
2022-09-24T18:03:57.852Z,12.84
2022-09-24T18:06:30.553Z,12.80
2022-09-24T18:09:00.994Z,12.75
2022-09-24T18:11:33.509Z,12.68
2022-09-24T18:14:02.737Z,12.61
2022-09-24T18:16:32.274Z,12.57
2022-09-24T18:19:00.441Z,12.56
2022-09-24T18:21:28.133Z,12.48
2022-09-24T18:23:59.917Z,12.44
2022-09-24T18:26:32.567Z,12.40
2022-09-24T18:29:05.854Z,12.37
2022-09-24T18:31:32.652Z,12.34
2022-09-24T18:34:06.700Z,12.32
2022-09-24T18:36:36.143Z,12.29
2022-09-24T18:39:04.726Z,12.26
2022-09-24T18:41:31.754Z,12.19
2022-09-24T18:43:59.499Z,12.15
2022-09-24T18:46:29.395Z,12.07
2022-09-24T18:48:57.496Z,12.02
2022-09-24T18:51:27.976Z,11.98
2022-09-24T18:53:57.686Z,11.93
2022-09-24T18:56:24.939Z,11.85
2022-09-24T18:58:59.715Z,11.85
2022-09-24T19:01:27.092Z,11.83
2022-09-24T19:04:00.228Z,11.80
2022-09-24T19:06:27.722Z,11.74
2022-09-24T19:08:54.187Z,11.69
2022-09-24T19:11:21.443Z,11.66
2022-09-24T19:13:50.248Z,11.68
2022-09-24T19:16:18.865Z,11.69
2022-09-24T19:18:45.567Z,11.70
2022-09-24T19:21:14.148Z,11.74
2022-09-24T19:23:46.244Z,11.67
2022-09-24T19:26:15.392Z,11.60
2022-09-24T19:28:42.949Z,11.61
2022-09-24T19:31:22.225Z,11.62
2022-09-24T19:33:50.035Z,11.61
2022-09-24T19:36:43.696Z,11.55
2022-09-24T19:39:14.470Z,11.51
2022-09-24T19:41:41.024Z,11.52
2022-09-24T19:44:11.210Z,11.51
2022-09-24T19:46:38.657Z,11.48
2022-09-24T19:49:06.105Z,11.47
2022-09-24T19:51:33.972Z,11.46
2022-09-24T19:54:08.998Z,11.44
2022-09-24T19:56:36.451Z,11.45
2022-09-24T19:59:03.533Z,11.45
2022-09-24T20:01:32.224Z,11.43
2022-09-24T20:04:00.303Z,11.40
2022-09-24T20:06:29.373Z,11.39
2022-09-24T20:08:57.034Z,11.39
2022-09-24T20:11:24.787Z,11.35
2022-09-24T20:13:53.483Z,11.33
2022-09-24T20:16:22.692Z,11.26
2022-09-24T20:18:51.207Z,11.26
2022-09-24T20:21:23.441Z,11.20
2022-09-24T20:24:47.645Z,11.19
2022-09-24T20:27:34.696Z,11.12
2022-09-24T20:30:03.365Z,11.08
2022-09-24T20:32:32.700Z,11.02
2022-09-24T20:35:02.457Z,10.98
2022-09-24T20:37:59.314Z,10.95
2022-09-24T20:40:29.336Z,10.88
2022-09-24T20:42:56.191Z,10.85
2022-09-24T20:45:22.749Z,10.82
2022-09-24T20:47:49.951Z,10.80
2022-09-24T20:50:18.271Z,10.82
2022-09-24T20:52:45.725Z,10.75
2022-09-24T20:55:15.543Z,10.76
2022-09-24T20:57:43.517Z,10.75
2022-09-24T21:00:14.434Z,10.71
2022-09-24T21:02:42.024Z,10.66
2022-09-24T21:05:11.427Z,10.62
2022-09-24T21:07:43.784Z,10.58
2022-09-24T21:10:11.836Z,10.54
2022-09-24T21:12:39.516Z,10.48
2022-09-24T21:15:08.235Z,10.41
2022-09-24T21:17:35.228Z,10.39
2022-09-24T21:20:02.423Z,10.30
2022-09-24T21:22:29.258Z,10.24
2022-09-24T21:24:55.852Z,10.20
2022-09-24T21:27:22.503Z,10.15
2022-09-24T21:29:49.024Z,10.07
2022-09-24T21:32:17.400Z,10.01
2022-09-24T21:34:44.965Z,9.91
2022-09-24T21:37:14.438Z,9.86
2022-09-24T21:39:43.081Z,9.82
2022-09-24T21:42:09.698Z,9.78
2022-09-24T21:44:36.490Z,9.72
2022-09-24T21:47:05.784Z,9.61
2022-09-24T21:49:34.567Z,9.55
2022-09-24T21:52:01.541Z,9.55
2022-09-24T21:54:30.303Z,9.53
2022-09-24T21:56:56.844Z,9.49
2022-09-24T21:59:41.786Z,9.46
2022-09-24T22:02:11.227Z,9.43
2022-09-24T22:04:38.099Z,9.38
2022-09-24T22:07:04.583Z,9.36
2022-09-24T22:09:32.473Z,9.31
2022-09-24T22:12:02.294Z,9.28
2022-09-24T22:14:28.890Z,9.28
2022-09-24T22:16:56.244Z,9.26
2022-09-24T22:19:23.073Z,9.25
2022-09-24T22:21:49.635Z,9.20
2022-09-24T22:24:16.180Z,9.18
2022-09-24T22:26:42.718Z,9.14
2022-09-24T22:29:09.243Z,9.10
2022-09-24T22:31:35.710Z,9.09
2022-09-24T22:34:20.781Z,9.11
2022-09-24T22:36:48.036Z,9.12
2022-09-24T22:39:15.527Z,9.02
2022-09-24T22:41:43.305Z,8.99
2022-09-24T22:44:11.955Z,8.98
2022-09-24T22:46:40.277Z,8.96
2022-09-24T22:49:07.850Z,9.01
2022-09-24T22:51:39.598Z,9.03
2022-09-24T22:54:06.821Z,8.98
2022-09-24T22:56:34.535Z,8.85
2022-09-24T22:59:01.425Z,8.80
2022-09-24T23:01:31.262Z,8.76
2022-09-24T23:03:59.159Z,8.77
2022-09-24T23:06:26.481Z,8.70
2022-09-24T23:08:55.093Z,8.66
2022-09-24T23:11:25.938Z,8.67
2022-09-24T23:14:00.578Z,8.67
2022-09-24T23:16:29.712Z,8.65
2022-09-24T23:18:59.182Z,8.67
2022-09-24T23:21:27.745Z,8.67
2022-09-24T23:23:56.340Z,8.69
2022-09-24T23:26:24.512Z,8.68
2022-09-24T23:28:53.076Z,8.68
2022-09-24T23:31:22.353Z,8.69
2022-09-24T23:33:49.960Z,8.72
2022-09-24T23:36:17.608Z,8.76
2022-09-24T23:38:44.860Z,8.78
2022-09-24T23:41:12.628Z,8.77
2022-09-24T23:43:40.148Z,8.73
2022-09-24T23:46:07.040Z,8.71
2022-09-24T23:48:33.846Z,8.64
2022-09-24T23:51:00.876Z,8.56
2022-09-24T23:53:27.472Z,8.44
2022-09-24T23:55:55.025Z,8.40
2022-09-24T23:58:23.194Z,8.41
